Latest Coastal Weather Observations for Broome

IDW60701

Issued at 10:32 pm WST Tuesday 21 April 2015 (issued every 10 minutes, with the page automatically refreshed every 10 minutes)

About coastal observations | Map of coastal stations | Coastal observations for WA | Marine services | Other Formats
Station Details ID: 003003 Name: BROOME AIRPORT Lat: -17.95 Lon: 122.24 Height: 7.42 m
Data from the previous 72 hours. | See also: Recent months at Broome
Date/Time
WST
Temp

°C
Wind Pressure Rain
since 9am
mm
Weather Cloud Vis
km
Sea
Height
m
Swell
Dir
 
Speed
knots
Gust
knots
hPa Trend Height
m
Period
s
Dir
21/10:30pm 21.9 SSE 10 15 1012.6 - 4.8 - Partly cloudy 10 - - - -
21/10:00pm 21.7 SSE 8 11 1013.1 - 4.6 - Partly cloudy 10 - - - -
21/09:41pm 21.5 SSE 6 8 1013.6 - 4.4 - Partly cloudy 10 - - - -
21/09:30pm 21.3 SSE 6 9 1013.7 - 4.2 - Partly cloudy 5 - - - -
21/09:09pm 21.9 SW 1 5 1014.5 - 1.6 - Partly cloudy 6 - - - -
21/09:00pm 23.4 SSW 5 6 1013.9 - 0.8 - Mostly cloudy 10 - - - -
21/08:30pm 25.9 SE 5 8 1012.4 - 0.0 - Cloudy 10 - - - -
21/08:00pm 26.0 SE 8 12 1011.4 - 0.0 - Partly cloudy 10 - - - -
21/07:30pm 26.1 SE 7 8 1011.1 - 0.0 - Partly cloudy 10 - - - -
21/07:00pm 26.3 SE 7 9 1010.5 - 0.0 - Partly cloudy 10 - - - -
21/06:30pm 26.1 ESE 7 9 1010.2 - 0.0 - Partly cloudy 10 - - - -
21/06:00pm 26.4 ESE 7 9 1009.8 - 0.0 - Cloudy 10 - - - -
21/05:30pm 26.6 ESE 6 9 1009.5 - 0.0 - - 10 - - - -
21/05:00pm 26.7 E 4 5 1009.4 - 0.0 - - 10 - - - -
21/04:30pm 27.2 E 6 8 1009.3 - 0.0 - - 10 - - - -
21/04:00pm 27.3 E 7 11 1009.2 - 0.0 - - 10 - - - -
21/03:30pm 27.5 E 8 11 1009.3 - 0.0 - - 10 - - - -
21/03:00pm 27.5 E 7 11 1009.4 - 0.0 - Mostly clear 10 - - - -
21/02:30pm 27.1 ENE 7 11 1009.7 - 0.0 - Partly cloudy 10 - - - -
21/02:00pm 26.7 E 10 15 1009.5 - 0.0 - - 10 - - - -
21/01:30pm 26.7 ENE 10 14 1010.1 - 0.0 - Partly cloudy 10 - - - -
21/01:00pm 25.9 ENE 10 16 1010.5 - 0.0 Rain Partly cloudy 10 - - - -
21/12:30pm 27.1 ENE 13 17 1010.6 - 0.0 Rain Partly cloudy 10 - - - -
21/12:00pm 27.7 ENE 13 18 1010.7 R 0.0 Distant precip. Mostly cloudy 40 - - - -
21/11:30am 28.4 ENE 15 21 1010.8 - 0.0 - Partly cloudy 10 - - - -
21/11:00am 27.8 ENE 13 20 1011.4 - 0.0 - - 10 - - - -
21/10:30am 27.9 ENE 15 21 1011.7 - 0.0 - Partly cloudy 10 - - - -
21/10:00am 26.6 ENE 13 21 1012.4 - 0.0 - Partly cloudy 10 - - - -
21/09:30am 26.9 ENE 15 23 1012.5 - 0.0 - Partly cloudy 10 - - - -
21/09:00am 26.0 ENE 13 19 1012.4 R 0.0 Fine Mostly cloudy 10 - - - -
21/08:30am 24.9 E 13 18 1011.9 - 0.0 - - 10 - - - -
21/08:00am 23.9 E 12 18 1012.0 - 0.0 - - 10 - - - -
21/07:30am 23.4 E 10 14 1012.3 - 0.0 - - 10 - - - -
21/07:00am 22.9 E 10 15 1011.9 - 0.0 - - 10 - - - -
21/06:30am 22.7 E 10 14 1011.3 - 0.0 - - 10 - - - -
21/06:00am 23.0 E 12 17 1010.8 F 0.0 Fine Mostly cloudy 40 - - - -
21/05:30am 23.0 E 12 17 1010.8 - 0.0 - - 10 - - - -
21/05:00am 22.6 E 9 11 1011.3 - 0.0 - - 10 - - - -
21/04:30am 23.2 ESE 7 10 1012.0 - 0.0 - - 10 - - - -
21/04:00am 23.9 ESE 8 11 1012.3 - 0.0 - - 10 - - - -
21/03:30am 24.2 ESE 11 14 1012.2 - 0.0 - Partly cloudy 10 - - - -
21/03:00am 24.9 ESE 11 15 1012.1 - 0.0 - - 10 - - - -
21/02:30am 25.0 SE 11 14 1012.6 - 0.0 - - 10 - - - -
21/02:00am 25.1 SE 11 16 1012.9 - 0.0 - - 10 - - - -
21/01:30am 24.9 ESE 11 17 1013.0 - 0.0 - Partly cloudy 10 - - - -
21/01:00am 25.2 ESE 12 17 1013.3 - 0.0 - Partly cloudy 10 - - - -
21/12:30am 25.3 ESE 13 19 1013.3 - 0.0 - Partly cloudy 10 - - - -
21/12:00am 25.2 ESE 13 18 1013.3 - 0.0 - Cloudy 10 - - - -
 
Date/Time
WST
Temp

°C
Wind Pressure Rain
since 9am
mm
Weather Cloud Vis
km
Sea
Height
m
Swell
Dir
 
Speed
knots
Gust
knots
hPa Trend Height
m
Period
s
Dir
20/11:30pm 25.2 ESE 11 16 1013.6 - 0.0 - Partly cloudy 10 - - - -
20/11:00pm 25.1 ESE 10 15 1013.7 - 0.0 - Partly cloudy 10 - - - -
20/10:30pm 25.4 ESE 12 19 1013.0 - 0.0 - Partly cloudy 10 - - - -
20/10:00pm 25.4 ESE 13 17 1013.0 - 0.0 - - 10 - - - -
20/09:30pm 25.3 ESE 13 19 1013.0 - 0.0 - Partly cloudy 10 - - - -
20/09:00pm 25.7 ESE 16 23 1012.9 - 0.0 - Mostly clear 10 - - - -
20/08:30pm 25.9 ESE 14 20 1012.8 - 0.0 - - 10 - - - -
20/08:00pm 26.2 ESE 13 17 1012.5 - 0.0 - Partly cloudy 10 - - - -
20/07:30pm 26.4 SE 10 14 1012.2 - 0.0 - Partly cloudy 10 - - - -
20/07:00pm 26.1 SE 7 9 1012.3 - 0.0 - Partly cloudy 10 - - - -
20/06:30pm 26.3 ESE 7 9 1012.0 - 0.0 - Cloudy 10 - - - -
20/06:00pm 26.3 ESE 9 13 1011.4 - 0.0 - - 10 - - - -
20/05:30pm 26.7 ESE 9 13 1011.2 - 0.0 - - 10 - - - -
20/05:00pm 27.4 SE 11 14 1011.1 - 0.0 - Partly cloudy 10 - - - -
20/04:30pm 27.1 ESE 9 13 1011.1 - 0.0 - Partly cloudy 10 - - - -
20/04:00pm 27.7 ESE 9 11 1011.2 - 0.0 - - 10 - - - -
20/03:30pm 27.8 ESE 8 11 1011.0 - 0.0 - Partly cloudy 10 - - - -
20/03:00pm 28.6 E 10 15 1010.7 - 0.0 - Partly cloudy 10 - - - -
20/02:30pm 28.5 E 11 19 1010.7 - 0.0 - Partly cloudy 10 - - - -
20/02:00pm 28.9 E 14 19 1010.6 - 0.0 - Partly cloudy 10 - - - -
20/01:30pm 28.0 E 13 18 1010.8 - 0.0 - Partly cloudy 10 - - - -
20/01:00pm 27.9 E 14 20 1011.0 - 0.0 - Partly cloudy 10 - - - -
20/12:30pm 27.5 E 15 22 1011.0 - 0.0 - - 10 - - - -
20/12:00pm 27.7 E 16 21 1011.4 F 0.0 Fine Mostly cloudy 40 - - - -
20/11:30am 27.9 E 16 25 1011.8 - 0.0 - - 10 - - - -
20/11:00am 27.1 ENE 18 25 1012.4 - 0.0 - Partly cloudy 10 - - - -
20/10:30am 27.2 E 17 22 1012.7 - 0.0 - Partly cloudy 10 - - - -
20/10:00am 25.6 E 14 23 1013.1 - 0.0 - - 10 - - - -
20/09:43am 25.2 E 16 26 1013.3 - 0.0 - Partly cloudy 10 - - - -
20/09:30am 25.0 E 14 22 1013.5 - 0.0 - Partly cloudy 10 - - - -
20/09:00am 24.5 E 16 24 1013.7 F 11.8 Fine Mostly cloudy 40 - - - -
20/08:41am 24.5 E 16 27 1013.7 - 11.8 - Mostly clear 10 - - - -
20/08:30am 24.0 E 15 21 1013.8 - 11.8 - Mostly clear 10 - - - -
20/08:00am 23.2 E 14 21 1014.0 - 11.8 - Mostly clear 10 - - - -
20/07:30am 23.2 E 13 20 1013.9 - 11.8 - Mostly clear 10 - - - -
20/07:00am 22.8 E 13 19 1014.1 - 11.8 - Mostly clear 10 - - - -
20/06:30am 22.7 E 13 18 1013.7 - 11.8 - Mostly clear 10 - - - -
20/06:00am 22.7 E 14 20 1013.4 F 11.8 Fine Mostly cloudy 30 - - - -
20/05:30am 22.5 E 13 19 1012.7 - 11.8 - Partly cloudy 10 - - - -
20/05:00am 22.5 E 12 18 1012.6 - 11.8 - Partly cloudy 10 - - - -
20/04:30am 22.5 E 14 21 1012.8 - 11.8 - Partly cloudy 10 - - - -
20/04:00am 22.4 E 14 19 1013.0 - 11.8 - Partly cloudy 10 - - - -
20/03:30am 22.6 E 13 21 1013.3 - 11.8 - Partly cloudy 10 - - - -
20/03:00am 22.9 E 16 24 1013.3 - 11.8 - Mostly cloudy 10 - - - -
20/02:30am 23.0 E 16 23 1013.3 - 11.8 - Cloudy 10 - - - -
20/02:00am 23.2 E 15 21 1013.3 - 11.8 - Partly cloudy 10 - - - -
20/01:30am 23.2 E 14 20 1013.5 - 11.8 - Partly cloudy 10 - - - -
20/01:00am 23.5 E 15 22 1014.0 - 11.8 - Partly cloudy 10 - - - -
20/12:30am 23.7 E 16 23 1014.2 - 11.8 - Cloudy 10 - - - -
20/12:00am 23.8 ESE 16 21 1014.1 - 11.8 - Mostly cloudy 10 - - - -
 
Date/Time
WST
Temp

°C
Wind Pressure Rain
since 9am
mm
Weather Cloud Vis
km
Sea
Height
m
Swell
Dir
 
Speed
knots
Gust
knots
hPa Trend Height
m
Period
s
Dir
19/11:30pm 23.9 E 17 24 1014.7 - 11.8 - Partly cloudy 10 - - - -
19/11:00pm 23.9 E 17 25 1014.9 - 11.8 - Partly cloudy 10 - - - -
19/10:49pm 23.9 E 17 27 1014.9 - 11.8 - Partly cloudy 10 - - - -
19/10:30pm 24.3 ESE 18 27 1014.9 - 11.8 - Partly cloudy 10 - - - -
19/10:27pm 24.2 ESE 17 27 1014.9 - 11.8 - Partly cloudy 10 - - - -
19/10:00pm 24.4 ESE 17 25 1015.0 - 11.8 - Partly cloudy 10 - - - -
19/09:47pm 24.5 ESE 19 29 1014.8 - 11.6 - Partly cloudy 10 - - - -
19/09:30pm 24.9 ESE 18 27 1015.1 - 11.6 - Partly cloudy 10 - - - -
19/09:00pm 24.9 SE 17 26 1015.0 F 11.6 Fine Mostly cloudy 20 - - - -
19/08:47pm 24.8 SE 15 25 1015.1 - 11.6 - Partly cloudy 10 - - - -
19/08:30pm 24.8 SE 16 23 1015.1 - 11.6 - Partly cloudy 10 - - - -
19/08:08pm 25.0 SE 16 26 1014.8 - 11.6 - Partly cloudy 10 - - - -
19/08:00pm 24.8 SE 17 26 1014.9 - 11.6 Rain Mostly clear 10 - - - -
19/07:51pm 24.7 SE 15 25 1014.9 - 11.6 - Partly cloudy 10 - - - -
19/07:30pm 24.6 SE 13 20 1014.7 - 11.6 - Partly cloudy 10 - - - -
19/07:00pm 24.6 SE 14 18 1014.0 - 10.6 Rain Mostly clear 8 - - - -
19/06:30pm 24.9 SE 10 13 1013.9 - 8.8 Rain Mostly clear 9 - - - -
19/06:00pm 25.1 S 6 12 1013.6 R 6.8 Rain Mostly cloudy 15 - - - -
19/05:30pm 25.2 S 8 11 1013.0 - 5.2 Rain Mostly clear 10 - - - -
19/05:00pm 25.6 S 8 13 1012.3 - 4.6 Rain Mostly clear 10 - - - -
19/04:30pm 25.6 SSW 13 17 1011.8 - 4.0 Rain Mostly clear 9 - - - -
19/04:00pm 25.9 SW 11 15 1011.8 - 3.0 Rain Mostly clear 9 - - - -
19/03:30pm 25.8 WSW 8 11 1011.4 - 2.0 - Partly cloudy 10 - - - -
19/03:00pm 25.4 SW 15 19 1010.6 R 1.8 Rain Mostly cloudy 15 - - - -
19/02:30pm 26.2 W 11 16 1011.1 - 1.0 Rain Mostly clear 10 - - - -
19/02:00pm 26.4 WSW 9 13 1010.8 - 0.8 Rain Mostly clear 10 - - - -
19/01:30pm 27.3 NW 11 16 1011.1 - 0.6 Showers Mostly clear 10 - - - -
19/01:28pm 27.8 NW 11 16 1011.1 - 0.2 Showers Mostly clear 10 - - - -
19/01:00pm 32.8 E 6 10 1011.3 - 0.0 Thunderstorm Mostly clear 10 - - - -
19/12:55pm 33.0 E 6 8 1011.3 - 0.0 Thunder Mostly clear 10 - - - -
19/12:30pm 33.7 NE 8 12 1011.7 - 0.0 - Mostly clear 10 - - - -
19/12:00pm 33.5 NE 8 10 1012.0 R 0.0 Distant precip. Mostly cloudy 40 - - - -
19/11:30am 33.9 NE 9 13 1012.3 - 0.0 - Partly cloudy 10 - - - -
19/11:00am 33.5 ENE 10 14 1012.7 - 0.0 - Partly cloudy 10 - - - -
19/10:30am 32.2 NE 10 15 1013.3 - 0.0 - Cloudy 10 - - - -
19/10:00am 32.1 E 13 24 1013.5 - 0.0 - Partly cloudy 10 - - - -
19/09:30am 32.0 ENE 14 19 1013.2 - 0.0 - - 10 - - - -
19/09:00am 31.1 E 14 20 1012.8 F 0.0 Fine Mostly clear 40 - - - -
19/08:30am 29.7 E 13 21 1013.0 - 0.0 - Partly cloudy 10 - - - -
19/08:00am 28.0 E 11 18 1013.2 - 0.0 - Cloudy 10 - - - -
19/07:30am 27.6 E 9 13 1013.3 - 0.0 - Partly cloudy 10 - - - -
19/07:00am 27.4 E 8 11 1012.9 - 0.0 - Partly cloudy 10 - - - -
19/06:30am 27.0 E 9 13 1012.1 - 0.0 - Cloudy 10 - - - -
19/06:00am 26.6 E 7 8 1011.6 R 0.0 Distant precip. Mostly cloudy 40 - - - -
19/05:30am 26.7 E 9 11 1011.2 - 0.0 - Partly cloudy 10 - - - -
19/05:00am 27.0 ESE 10 13 1010.9 - 0.0 - Partly cloudy 10 - - - -
19/04:30am 27.1 ESE 9 13 1010.4 - 0.0 - - 10 - - - -
19/04:00am 27.3 ESE 8 11 1010.5 - 0.0 - - 10 - - - -
19/03:30am 27.6 ESE 8 11 1010.6 - 0.0 - - 10 - - - -
19/03:00am 28.0 ESE 9 12 1010.6 - 0.0 - Mostly clear 10 - - - -
19/02:30am 28.8 ESE 11 14 1010.8 - 0.0 - Partly cloudy 10 - - - -
19/02:00am 29.4 SE 8 12 1011.2 - 0.0 - - 10 - - - -
19/01:30am 29.5 SE 8 11 1011.4 - 0.0 - - 10 - - - -
19/01:00am 29.6 ESE 9 12 1011.7 - 0.0 - Partly cloudy 10 - - - -
19/12:30am 29.9 ESE 10 14 1011.9 - 0.0 - Partly cloudy 10 - - - -
19/12:00am 30.3 ESE 11 15 1012.0 - 0.0 - - 10 - - - -
 
Date/Time
WST
Temp

°C
Wind Pressure Rain
since 9am
mm
Weather Cloud Vis
km
Sea
Height
m
Swell
Dir
 
Speed
knots
Gust
knots
hPa Trend Height
m
Period
s
Dir
18/11:30pm 30.4 ESE 11 16 1012.4 - 0.0 - - 10 - - - -
18/11:00pm 30.7 ESE 12 18 1012.3 - 0.0 - - 10 - - - -

Other Formats:

Comma delimited format used in spreadsheet applications
http://www.bom.gov.au/fwo/IDW60701/IDW60701.94203.axf

JavaScript Object Notation format (JSON) in row-major order
http://www.bom.gov.au/fwo/IDW60701/IDW60701.94203.json